createdAt,value
2019-04-30T00:00:45.907Z,10.50
2019-04-30T00:03:27.037Z,10.50
2019-04-30T00:05:58.009Z,10.50
2019-04-30T00:08:30.108Z,10.40
2019-04-30T00:11:01.277Z,10.40
2019-04-30T00:13:32.325Z,10.40
2019-04-30T00:16:03.042Z,10.40
2019-04-30T00:18:38.212Z,10.30
2019-04-30T00:21:09.976Z,10.40
2019-04-30T00:23:38.426Z,10.40
2019-04-30T00:26:10.588Z,10.40
2019-04-30T00:28:46.352Z,10.30
2019-04-30T00:31:17.304Z,10.30
2019-04-30T00:33:46.813Z,10.30
2019-04-30T00:36:17.638Z,10.30
2019-04-30T00:38:48.510Z,10.30
2019-04-30T00:41:19.299Z,10.30
2019-04-30T00:43:50.874Z,10.40
2019-04-30T00:46:24.897Z,10.30
2019-04-30T00:48:56.757Z,10.30
2019-04-30T00:51:27.167Z,10.20
2019-04-30T00:53:58.011Z,10.30
2019-04-30T00:56:28.754Z,10.20
2019-04-30T00:59:02.421Z,10.20
2019-04-30T01:02:06.167Z,10.20
2019-04-30T01:04:48.527Z,10.10
2019-04-30T01:07:19.482Z,10.10
2019-04-30T01:09:50.229Z,10.10
2019-04-30T01:12:25.538Z,10.20
2019-04-30T01:14:53.627Z,10.20
2019-04-30T01:17:24.405Z,10.10
2019-04-30T01:19:55.317Z,10.10
2019-04-30T01:22:29.195Z,10.10
2019-04-30T01:25:02.814Z,10.10
2019-04-30T01:27:32.116Z,10.10
2019-04-30T01:30:03.729Z,10.10
2019-04-30T01:32:35.836Z,10.10
2019-04-30T01:35:08.919Z,10.10
2019-04-30T01:37:39.991Z,10.10
2019-04-30T01:40:13.669Z,10.10
2019-04-30T01:42:48.029Z,10.10
2019-04-30T01:45:15.884Z,10.20
2019-04-30T01:47:46.720Z,10.10
2019-04-30T01:50:19.358Z,10.10
2019-04-30T01:52:52.919Z,10.10
2019-04-30T01:55:43.845Z,10.00
2019-04-30T01:58:23.502Z,10.00
2019-04-30T02:00:59.240Z,10.00
2019-04-30T02:03:29.798Z,9.90
2019-04-30T02:06:00.660Z,9.90
2019-04-30T02:08:31.584Z,9.80
2019-04-30T02:11:02.110Z,9.80
2019-04-30T02:13:34.553Z,9.80
2019-04-30T02:16:05.563Z,9.70
2019-04-30T02:18:39.288Z,9.70
2019-04-30T02:21:11.422Z,9.70
2019-04-30T02:23:42.292Z,9.70
2019-04-30T02:26:12.948Z,9.80
2019-04-30T02:28:43.939Z,9.80
2019-04-30T02:31:14.890Z,9.80
2019-04-30T02:33:50.226Z,9.80
2019-04-30T02:36:46.442Z,9.80
2019-04-30T02:39:20.173Z,9.90
2019-04-30T02:41:50.714Z,9.80
2019-04-30T02:44:22.315Z,9.80
2019-04-30T02:46:54.845Z,9.80
2019-04-30T02:49:27.059Z,9.70
2019-04-30T02:52:00.009Z,9.70
2019-04-30T02:54:32.890Z,9.60
2019-04-30T02:57:11.805Z,9.60
2019-04-30T03:00:01.072Z,9.60
2019-04-30T03:02:32.927Z,9.60
2019-04-30T03:05:04.377Z,9.50
2019-04-30T03:07:35.103Z,9.50
2019-04-30T03:10:09.778Z,9.40
2019-04-30T03:12:40.550Z,9.40
2019-04-30T03:15:11.569Z,9.30
2019-04-30T03:18:01.254Z,9.30
2019-04-30T03:20:49.824Z,9.30
2019-04-30T03:23:21.186Z,9.30
2019-04-30T03:25:51.551Z,9.20
2019-04-30T03:28:22.377Z,9.20
2019-04-30T03:30:57.548Z,9.20
2019-04-30T03:33:26.800Z,9.20
2019-04-30T03:36:01.906Z,9.20
2019-04-30T03:38:30.385Z,9.20
2019-04-30T03:41:01.055Z,9.10
2019-04-30T03:43:32.051Z,9.10
2019-04-30T03:46:03.079Z,9.10
2019-04-30T03:48:33.813Z,9.10
2019-04-30T03:51:04.596Z,9.10
2019-04-30T03:53:35.290Z,9.10
2019-04-30T03:56:06.105Z,9.10
2019-04-30T03:58:39.555Z,9.20
2019-04-30T04:01:15.845Z,9.10
2019-04-30T04:04:05.359Z,9.10
2019-04-30T04:06:40.415Z,9.10
2019-04-30T04:09:22.047Z,9.00
2019-04-30T04:11:50.848Z,9.00
2019-04-30T04:14:21.737Z,9.00
2019-04-30T04:16:52.610Z,9.00
2019-04-30T04:19:23.716Z,9.00
2019-04-30T04:21:54.797Z,9.00
2019-04-30T04:24:25.898Z,9.00
2019-04-30T04:26:56.656Z,8.90
2019-04-30T04:29:29.844Z,8.90
2019-04-30T04:32:00.825Z,8.90
2019-04-30T04:34:31.403Z,8.90
2019-04-30T04:37:01.864Z,8.90
2019-04-30T04:39:32.242Z,8.80
2019-04-30T04:42:02.800Z,8.80
2019-04-30T04:44:33.183Z,8.80
2019-04-30T04:47:03.971Z,8.80
2019-04-30T04:49:34.790Z,8.80
2019-04-30T04:52:06.781Z,8.70
2019-04-30T04:54:39.870Z,8.70
2019-04-30T04:57:17.686Z,8.70
2019-04-30T04:59:42.793Z,8.70
2019-04-30T05:02:32.811Z,8.70
2019-04-30T05:05:04.020Z,8.70
2019-04-30T05:07:34.836Z,8.70
2019-04-30T05:10:05.887Z,8.70
2019-04-30T05:12:37.936Z,8.70
2019-04-30T05:15:09.739Z,8.70
2019-04-30T05:17:40.410Z,8.70
2019-04-30T05:20:11.821Z,8.70
2019-04-30T05:22:42.883Z,8.70
2019-04-30T05:25:13.715Z,8.70
2019-04-30T05:27:44.720Z,8.70
2019-04-30T05:30:15.747Z,8.70
2019-04-30T05:32:46.704Z,8.70
2019-04-30T05:35:18.602Z,8.70
2019-04-30T05:37:49.604Z,8.70
2019-04-30T05:40:20.614Z,8.70
2019-04-30T05:42:51.265Z,8.70
2019-04-30T05:45:22.196Z,8.70
2019-04-30T05:47:52.749Z,8.70
2019-04-30T05:50:23.686Z,8.70
2019-04-30T05:52:54.716Z,8.70
2019-04-30T05:55:25.545Z,8.70
2019-04-30T05:57:56.669Z,8.70
2019-04-30T06:00:30.282Z,8.70
2019-04-30T06:03:00.104Z,8.70
2019-04-30T06:05:30.777Z,8.70
2019-04-30T06:08:01.592Z,8.70
2019-04-30T06:10:43.753Z,8.70
2019-04-30T06:13:19.016Z,8.70
2019-04-30T06:15:54.084Z,8.70
2019-04-30T06:18:25.011Z,8.70
2019-04-30T06:20:55.769Z,8.80
2019-04-30T06:23:26.568Z,8.80
2019-04-30T06:26:06.758Z,8.80
2019-04-30T06:28:30.631Z,8.80
2019-04-30T06:31:01.652Z,8.80
2019-04-30T06:33:32.682Z,8.80
2019-04-30T06:36:03.885Z,8.90
2019-04-30T06:38:34.665Z,8.80
2019-04-30T06:41:05.570Z,8.90
2019-04-30T06:43:36.483Z,8.90
2019-04-30T06:46:08.747Z,8.90
2019-04-30T06:48:41.862Z,8.90
2019-04-30T06:51:12.294Z,9.00
2019-04-30T06:53:43.526Z,9.00
2019-04-30T06:56:14.132Z,9.00
2019-04-30T06:58:44.639Z,9.00
2019-04-30T07:01:15.420Z,9.00
2019-04-30T07:03:46.285Z,9.00
2019-04-30T07:06:27.531Z,8.90
2019-04-30T07:09:08.866Z,8.90
2019-04-30T07:11:53.669Z,8.90
2019-04-30T07:14:24.607Z,9.00
2019-04-30T07:16:55.604Z,9.00
2019-04-30T07:19:33.025Z,9.00
2019-04-30T07:24:44.358Z,9.00
2019-04-30T07:27:15.102Z,9.10
2019-04-30T07:29:46.101Z,9.10
2019-04-30T07:32:19.534Z,9.10
2019-04-30T07:34:49.644Z,9.20
2019-04-30T07:37:24.252Z,9.20
2019-04-30T07:39:53.246Z,9.20
2019-04-30T07:42:24.029Z,9.20
2019-04-30T07:44:54.980Z,9.20
2019-04-30T07:47:25.895Z,9.20
2019-04-30T07:49:56.802Z,9.20
2019-04-30T07:52:33.050Z,9.20
2019-04-30T07:55:00.784Z,9.20
2019-04-30T07:57:32.297Z,9.30
2019-04-30T08:00:03.619Z,9.30
2019-04-30T08:02:43.691Z,9.30
2019-04-30T08:05:25.937Z,9.40
2019-04-30T08:08:14.405Z,9.50
2019-04-30T08:10:32.145Z,9.50
2019-04-30T08:13:10.097Z,9.50
2019-04-30T08:15:35.977Z,9.50
2019-04-30T08:18:08.638Z,9.50
2019-04-30T08:20:39.382Z,9.50
2019-04-30T08:23:20.193Z,9.50
2019-04-30T08:25:42.616Z,9.50
2019-04-30T08:28:13.328Z,9.50
2019-04-30T08:30:44.350Z,9.50
2019-04-30T08:33:15.206Z,9.50
2019-04-30T08:35:46.229Z,9.50
2019-04-30T08:38:19.049Z,9.50
2019-04-30T08:40:56.187Z,9.50
2019-04-30T08:43:21.578Z,9.60
2019-04-30T08:45:52.707Z,9.60
2019-04-30T08:48:23.144Z,9.60
2019-04-30T08:50:53.758Z,9.60
2019-04-30T08:53:29.364Z,9.70
2019-04-30T08:55:58.997Z,9.60
2019-04-30T08:58:30.117Z,9.70
2019-04-30T09:01:01.172Z,9.70
2019-04-30T09:03:32.088Z,9.70
2019-04-30T09:06:24.687Z,9.80
2019-04-30T09:08:59.328Z,9.80
2019-04-30T09:11:38.552Z,9.80
2019-04-30T09:14:02.573Z,9.80
2019-04-30T09:16:33.583Z,9.90
2019-04-30T09:19:05.249Z,9.90
2019-04-30T09:21:36.157Z,9.90
2019-04-30T09:24:06.847Z,9.90
2019-04-30T09:26:39.171Z,9.90
2019-04-30T09:29:09.771Z,9.90
2019-04-30T09:31:41.052Z,9.90
2019-04-30T09:34:17.115Z,9.80
2019-04-30T09:36:44.403Z,9.80
2019-04-30T09:39:15.040Z,9.80
2019-04-30T09:41:46.020Z,9.80
2019-04-30T09:44:16.724Z,9.80
2019-04-30T09:46:48.939Z,9.90
2019-04-30T09:49:21.091Z,9.90
2019-04-30T09:51:52.335Z,9.90
2019-04-30T09:54:23.361Z,9.90
2019-04-30T09:56:54.627Z,10.00
2019-04-30T09:59:25.345Z,10.00
2019-04-30T10:01:56.087Z,10.00
2019-04-30T10:04:27.854Z,10.10
2019-04-30T10:06:59.617Z,10.10
2019-04-30T10:09:30.792Z,10.10
2019-04-30T10:12:09.703Z,10.10
2019-04-30T10:14:41.052Z,10.00
2019-04-30T10:17:37.419Z,10.00
2019-04-30T10:20:10.109Z,10.00
2019-04-30T10:22:40.479Z,10.00
2019-04-30T10:25:11.726Z,10.00
2019-04-30T10:27:42.251Z,10.00
2019-04-30T10:30:13.484Z,10.00
2019-04-30T10:32:43.858Z,10.00
2019-04-30T10:35:14.599Z,10.00
2019-04-30T10:37:44.988Z,10.10
2019-04-30T10:40:15.512Z,10.10
2019-04-30T10:42:46.068Z,10.10
2019-04-30T10:45:18.493Z,10.20
2019-04-30T10:47:49.197Z,10.20
2019-04-30T10:50:21.186Z,10.30
2019-04-30T10:52:51.746Z,10.30
2019-04-30T10:55:22.486Z,10.30
2019-04-30T10:57:53.304Z,10.40
2019-04-30T11:00:39.183Z,10.40
2019-04-30T11:03:19.086Z,10.40
2019-04-30T11:05:43.351Z,10.50
2019-04-30T11:08:14.462Z,10.50
2019-04-30T11:10:45.332Z,10.50
2019-04-30T11:13:16.521Z,10.50
2019-04-30T11:15:49.083Z,10.60
2019-04-30T11:18:20.569Z,10.60
2019-04-30T11:20:51.403Z,10.60
2019-04-30T11:23:22.181Z,10.60
2019-04-30T11:25:53.413Z,10.70
2019-04-30T11:28:24.725Z,10.70
2019-04-30T11:31:07.705Z,10.70
2019-04-30T11:33:38.592Z,10.80
2019-04-30T11:36:09.668Z,10.80
2019-04-30T11:38:40.286Z,10.80
2019-04-30T11:41:10.958Z,10.80
2019-04-30T11:43:41.443Z,10.80
2019-04-30T11:47:03.913Z,10.90
2019-04-30T11:49:35.117Z,10.90
2019-04-30T11:52:05.628Z,10.90
2019-04-30T11:54:48.492Z,10.90
2019-04-30T11:57:09.438Z,11.00
2019-04-30T11:59:39.901Z,11.10
2019-04-30T12:02:16.342Z,11.10
2019-04-30T12:04:46.773Z,11.10
2019-04-30T12:07:36.081Z,11.20
2019-04-30T12:10:13.864Z,11.20
2019-04-30T12:12:44.469Z,11.30
2019-04-30T12:15:15.934Z,11.30
2019-04-30T12:17:46.461Z,11.30
2019-04-30T12:20:17.281Z,11.40
2019-04-30T12:22:49.232Z,11.40
2019-04-30T12:25:21.104Z,11.40
2019-04-30T12:27:51.507Z,11.50
2019-04-30T12:30:22.462Z,11.50
2019-04-30T12:32:52.929Z,11.50
2019-04-30T12:35:23.376Z,11.60
2019-04-30T12:37:53.894Z,11.60
2019-04-30T12:40:28.871Z,11.60
2019-04-30T12:42:56.624Z,11.60
2019-04-30T12:45:27.110Z,11.70
2019-04-30T12:48:01.120Z,11.70
2019-04-30T12:50:39.214Z,11.70
2019-04-30T12:53:14.335Z,11.70
2019-04-30T12:56:02.609Z,11.70
2019-04-30T12:58:33.294Z,11.80
2019-04-30T13:01:04.449Z,11.90
2019-04-30T13:03:35.719Z,12.00
2019-04-30T13:06:10.514Z,12.00
2019-04-30T13:08:41.377Z,12.10
2019-04-30T13:11:13.428Z,12.20
2019-04-30T13:13:45.295Z,12.30
2019-04-30T13:16:16.766Z,12.30
2019-04-30T13:18:49.389Z,12.40
2019-04-30T13:21:20.038Z,12.50
2019-04-30T13:23:51.103Z,12.50
2019-04-30T13:26:22.485Z,12.50
2019-04-30T13:28:59.698Z,12.50
2019-04-30T13:31:30.815Z,12.50
2019-04-30T13:34:26.908Z,12.50
2019-04-30T13:36:59.306Z,12.50
2019-04-30T13:39:48.081Z,12.40
2019-04-30T13:42:20.810Z,12.40
2019-04-30T13:44:51.609Z,12.40
2019-04-30T13:47:22.224Z,12.40
2019-04-30T13:49:52.837Z,12.40
2019-04-30T13:52:24.279Z,12.40
2019-04-30T13:54:54.856Z,12.40
2019-04-30T13:57:25.409Z,12.40
2019-04-30T13:59:56.029Z,12.40
2019-04-30T14:02:27.307Z,12.40
2019-04-30T14:05:17.637Z,12.40
2019-04-30T14:08:05.853Z,12.30
2019-04-30T14:10:40.645Z,12.30
2019-04-30T14:13:11.839Z,12.30
2019-04-30T14:15:42.626Z,12.20
2019-04-30T14:18:13.497Z,12.20
2019-04-30T14:20:44.066Z,12.20
2019-04-30T14:23:14.912Z,12.30
2019-04-30T14:25:55.893Z,12.30
2019-04-30T14:28:19.147Z,12.30
2019-04-30T14:30:49.906Z,12.30
2019-04-30T14:33:26.236Z,12.20
2019-04-30T14:35:52.867Z,12.30
2019-04-30T14:38:23.503Z,12.30
2019-04-30T14:40:54.476Z,12.30
2019-04-30T14:43:35.723Z,12.30
2019-04-30T14:46:26.191Z,12.30
2019-04-30T14:49:01.312Z,12.20
2019-04-30T14:51:32.884Z,12.20
2019-04-30T14:54:12.079Z,12.20
2019-04-30T14:57:03.140Z,12.20
2019-04-30T14:59:52.494Z,12.10
2019-04-30T15:02:30.145Z,12.10
2019-04-30T15:05:00.718Z,12.10
2019-04-30T15:07:31.189Z,12.10
2019-04-30T15:10:01.678Z,12.20
2019-04-30T15:12:32.254Z,12.20
2019-04-30T15:15:02.866Z,12.20
2019-04-30T15:17:33.364Z,12.20
2019-04-30T15:20:03.961Z,12.20
2019-04-30T15:22:38.927Z,12.10
2019-04-30T15:25:09.458Z,12.10
2019-04-30T15:27:45.192Z,12.10
2019-04-30T15:30:12.266Z,12.20
2019-04-30T15:32:44.273Z,12.20
2019-04-30T15:35:14.868Z,12.20
2019-04-30T15:37:48.645Z,12.20
2019-04-30T15:40:19.771Z,12.20
2019-04-30T15:42:51.990Z,12.20
2019-04-30T15:45:22.613Z,12.20
2019-04-30T15:47:53.035Z,12.20
2019-04-30T15:50:23.493Z,12.20
2019-04-30T15:52:54.123Z,12.20
2019-04-30T15:55:24.615Z,12.20
2019-04-30T15:58:10.770Z,12.20
2019-04-30T16:00:41.306Z,12.20
2019-04-30T16:03:18.303Z,12.20
2019-04-30T16:05:50.526Z,12.20
2019-04-30T16:08:25.385Z,12.20
2019-04-30T16:11:10.420Z,12.20
2019-04-30T16:13:58.538Z,12.20
2019-04-30T16:16:32.912Z,12.20
2019-04-30T16:19:03.496Z,12.30
2019-04-30T16:21:35.013Z,12.30
2019-04-30T16:24:05.521Z,12.30
2019-04-30T16:26:47.304Z,12.30
2019-04-30T16:29:09.924Z,12.30
2019-04-30T16:31:40.658Z,12.30
2019-04-30T16:34:11.164Z,12.30
2019-04-30T16:36:41.771Z,12.30
2019-04-30T16:39:13.454Z,12.30
2019-04-30T16:41:43.897Z,12.30
2019-04-30T16:44:14.487Z,12.30
2019-04-30T16:46:44.983Z,12.30
2019-04-30T16:49:15.572Z,12.30
2019-04-30T16:51:45.951Z,12.30
2019-04-30T16:54:18.568Z,12.30
2019-04-30T16:57:02.758Z,12.30
2019-04-30T16:59:25.317Z,12.30
2019-04-30T17:01:57.788Z,12.40
2019-04-30T17:04:46.567Z,12.40
2019-04-30T17:07:54.216Z,12.40
2019-04-30T17:10:39.393Z,12.40
2019-04-30T17:13:31.745Z,12.50
2019-04-30T17:16:11.242Z,12.50
2019-04-30T17:18:41.961Z,12.50
2019-04-30T17:21:12.639Z,12.60
2019-04-30T17:23:43.101Z,12.60
2019-04-30T17:26:13.482Z,12.60
2019-04-30T17:28:44.041Z,12.60
2019-04-30T17:31:14.554Z,12.60
2019-04-30T17:33:45.645Z,12.60
2019-04-30T17:36:16.305Z,12.50
2019-04-30T17:38:47.896Z,12.50
2019-04-30T17:41:18.273Z,12.50
2019-04-30T17:43:49.606Z,12.60
2019-04-30T17:46:21.242Z,12.60
2019-04-30T17:48:51.745Z,12.50
2019-04-30T17:51:22.910Z,12.50
2019-04-30T17:54:15.430Z,12.50
2019-04-30T17:56:46.331Z,12.50
2019-04-30T17:59:16.901Z,12.50
2019-04-30T18:01:53.205Z,12.50
2019-04-30T18:04:23.839Z,12.50
2019-04-30T18:06:54.308Z,12.60
2019-04-30T18:09:24.915Z,12.50
2019-04-30T18:11:55.416Z,12.50
2019-04-30T18:14:28.442Z,12.50
2019-04-30T18:16:59.479Z,12.60
2019-04-30T18:19:38.590Z,12.60
2019-04-30T18:22:16.853Z,12.60
2019-04-30T18:24:59.254Z,12.60
2019-04-30T18:27:43.838Z,12.60
2019-04-30T18:30:08.963Z,12.70
2019-04-30T18:32:39.430Z,12.70
2019-04-30T18:35:09.919Z,12.70
2019-04-30T18:37:40.439Z,12.70
2019-04-30T18:40:11.310Z,12.70
2019-04-30T18:42:42.369Z,12.80
2019-04-30T18:45:14.388Z,12.80
2019-04-30T18:47:45.332Z,12.80
2019-04-30T18:50:16.145Z,12.80
2019-04-30T18:52:48.747Z,12.80
2019-04-30T18:55:19.763Z,12.90
2019-04-30T18:57:56.478Z,12.80
2019-04-30T19:00:39.597Z,12.90
2019-04-30T19:03:10.450Z,12.90
2019-04-30T19:05:42.743Z,12.90
2019-04-30T19:08:25.656Z,12.90
2019-04-30T19:11:08.867Z,12.90
2019-04-30T19:13:59.285Z,12.90
2019-04-30T19:16:46.872Z,12.80
2019-04-30T19:19:27.247Z,12.90
2019-04-30T19:21:58.651Z,12.90
2019-04-30T19:24:29.618Z,12.90
2019-04-30T19:27:00.637Z,12.90
2019-04-30T19:29:31.580Z,12.90
2019-04-30T19:32:02.626Z,12.90
2019-04-30T19:34:33.602Z,13.00
2019-04-30T19:37:04.626Z,13.00
2019-04-30T19:39:35.236Z,13.00
2019-04-30T19:42:06.300Z,13.00
2019-04-30T19:44:39.278Z,13.00
2019-04-30T19:47:10.144Z,13.00
2019-04-30T19:49:41.042Z,13.10
2019-04-30T19:52:12.378Z,13.10
2019-04-30T19:54:43.639Z,13.10
2019-04-30T19:57:15.379Z,13.10
2019-04-30T19:59:49.076Z,13.10
2019-04-30T20:02:21.826Z,13.10
2019-04-30T20:04:52.711Z,13.10
2019-04-30T20:07:23.506Z,13.10
2019-04-30T20:10:02.775Z,13.10
2019-04-30T20:12:28.977Z,13.10
2019-04-30T20:15:00.551Z,13.10
2019-04-30T20:17:31.818Z,13.10
2019-04-30T20:20:02.972Z,13.10
2019-04-30T20:22:33.930Z,13.10
2019-04-30T20:25:19.059Z,13.10
2019-04-30T20:27:49.647Z,13.10
2019-04-30T20:30:20.157Z,13.10
2019-04-30T20:32:51.395Z,13.10
2019-04-30T20:35:21.997Z,13.10
2019-04-30T20:38:10.049Z,13.10
2019-04-30T20:40:43.534Z,13.10
2019-04-30T20:43:14.570Z,13.10
2019-04-30T20:45:44.983Z,13.10
2019-04-30T20:48:15.638Z,13.10
2019-04-30T20:50:46.161Z,13.10
2019-04-30T20:53:16.599Z,13.10
2019-04-30T20:55:47.077Z,13.10
2019-04-30T20:58:17.573Z,13.00
2019-04-30T21:01:00.612Z,13.00
2019-04-30T21:03:21.378Z,13.00
2019-04-30T21:05:51.952Z,13.00
2019-04-30T21:08:22.471Z,13.00
2019-04-30T21:10:52.921Z,13.10
2019-04-30T21:13:23.429Z,13.00
2019-04-30T21:15:55.072Z,13.00
2019-04-30T21:18:26.173Z,13.00
2019-04-30T21:20:56.736Z,13.00
2019-04-30T21:23:29.234Z,13.00
2019-04-30T21:25:59.889Z,13.10
2019-04-30T21:28:30.294Z,13.00
2019-04-30T21:31:19.781Z,13.00
2019-04-30T21:33:52.128Z,13.00
2019-04-30T21:36:24.755Z,13.00
2019-04-30T21:38:55.649Z,13.10
2019-04-30T21:41:26.444Z,13.10
2019-04-30T21:43:57.315Z,13.10
2019-04-30T21:46:29.333Z,13.10
2019-04-30T21:49:00.612Z,13.10
2019-04-30T21:51:31.353Z,13.00
2019-04-30T21:54:02.474Z,13.00
2019-04-30T21:56:33.284Z,13.00
2019-04-30T21:59:03.985Z,13.00
2019-04-30T22:01:34.504Z,13.00
2019-04-30T22:04:06.645Z,13.00
2019-04-30T22:06:39.355Z,13.00
2019-04-30T22:09:10.365Z,13.00
2019-04-30T22:11:42.908Z,13.00
2019-04-30T22:14:13.657Z,13.00
2019-04-30T22:16:44.206Z,13.00
2019-04-30T22:19:14.613Z,13.00
2019-04-30T22:21:45.060Z,13.10
2019-04-30T22:24:16.299Z,13.10
2019-04-30T22:26:47.196Z,13.10
2019-04-30T22:29:19.151Z,13.10
2019-04-30T22:31:50.185Z,13.10
2019-04-30T22:34:21.279Z,13.10
2019-04-30T22:36:52.228Z,13.10
2019-04-30T22:39:31.190Z,13.10
2019-04-30T22:42:39.722Z,13.00
2019-04-30T22:45:38.263Z,13.10
2019-04-30T22:48:09.203Z,13.10
2019-04-30T22:50:39.877Z,13.00
2019-04-30T22:53:11.772Z,13.00
2019-04-30T22:55:42.418Z,13.00
2019-04-30T22:58:13.559Z,13.00
2019-04-30T23:00:45.633Z,13.10
2019-04-30T23:03:32.177Z,13.00
2019-04-30T23:06:04.091Z,13.00
2019-04-30T23:08:34.998Z,13.00
2019-04-30T23:11:05.739Z,13.00
2019-04-30T23:13:36.433Z,13.00
2019-04-30T23:16:08.167Z,13.00
2019-04-30T23:18:38.855Z,13.00
2019-04-30T23:21:09.337Z,13.00
2019-04-30T23:23:39.763Z,12.90
2019-04-30T23:26:10.292Z,12.90
2019-04-30T23:28:40.707Z,12.80
2019-04-30T23:31:11.188Z,12.80
2019-04-30T23:33:41.708Z,12.80
2019-04-30T23:36:12.073Z,12.80
2019-04-30T23:38:42.424Z,12.80
2019-04-30T23:41:12.991Z,12.80
2019-04-30T23:43:43.514Z,12.70
2019-04-30T23:46:13.994Z,12.70
2019-04-30T23:48:45.511Z,12.70
2019-04-30T23:51:16.014Z,12.60
2019-04-30T23:53:46.378Z,12.60
2019-04-30T23:56:16.757Z,12.60
2019-04-30T23:58:47.230Z,12.50
